Time;durP1;ratioP1;P1;durP2;ratioP2;P2;SDS_P1;SDS_P2;PMS_P1;PMS_P2;Temp;Humidity;BMP_temperature;BMP_pressure;BME280_temperature;BME280_humidity;BME280_pressure;Samples;Min_cycle;Max_cycle;Signal;HPM_P1;HPM_P2
2023/05/02 05:09:56;;;;;;;;;35.25;31.75;;;;;-145.45;100.00;57426.63;6179590;22;46410;-72
2023/05/02 05:12:22;;;;;;;;;36.75;33.25;;;;;-145.45;100.00;57426.63;6215009;22;44853;-73
2023/05/02 05:14:48;;;;;;;;;33.75;30.75;;;;;-145.45;100.00;57426.63;6214990;22;45619;-72
2023/05/02 05:17:14;;;;;;;;;34.25;29.25;;;;;-145.45;100.00;57426.63;6214246;22;45292;-72
2023/05/02 05:19:39;;;;;;;;;40.75;31.25;;;;;-145.45;100.00;57426.63;6214736;22;45321;-73
2023/05/02 05:22:04;;;;;;;;;44.50;33.50;;;;;-145.45;100.00;57426.63;6214628;22;45492;-73
2023/05/02 05:24:30;;;;;;;;;36.25;30.00;;;;;-145.45;100.00;57426.63;6215260;22;46341;-75
2023/05/02 05:26:55;;;;;;;;;40.00;31.25;;;;;-145.45;100.00;57426.63;6214884;22;48866;-74
2023/05/02 05:29:20;;;;;;;;;34.00;32.25;;;;;-145.45;100.00;57426.63;6214665;22;45394;-74
2023/05/02 05:31:46;;;;;;;;;39.50;30.25;;;;;-145.45;100.00;57426.63;6215240;22;45303;-74
2023/05/02 05:34:12;;;;;;;;;37.25;33.50;;;;;-145.45;100.00;57426.63;6215020;22;45926;-71
2023/05/02 05:36:39;;;;;;;;;37.25;32.00;;;;;-145.45;100.00;57426.63;6215258;22;45249;-70
2023/05/02 05:39:05;;;;;;;;;40.00;32.50;;;;;-145.45;100.00;57426.63;6215597;22;45220;-74
2023/05/02 05:41:31;;;;;;;;;36.75;31.25;;;;;-145.45;100.00;57426.63;6214786;22;45485;-72
2023/05/02 05:43:56;;;;;;;;;42.00;35.50;;;;;-145.45;100.00;57426.63;6216366;22;45979;-73
2023/05/02 05:46:21;;;;;;;;;41.25;32.25;;;;;-145.45;100.00;57426.63;6215913;22;45260;-73
2023/05/02 05:48:47;;;;;;;;;31.25;30.50;;;;;-145.45;100.00;57426.63;6216673;22;45351;-73
2023/05/02 05:51:12;;;;;;;;;32.75;29.75;;;;;-145.45;100.00;57426.63;6216513;22;45412;-73
2023/05/02 05:53:37;;;;;;;;;33.25;27.75;;;;;-145.45;100.00;57426.63;6216341;22;50662;-73
2023/05/02 05:56:12;;;;;;;;;32.00;24.75;;;;;-145.45;100.00;57426.63;6214864;22;45327;-72
2023/05/02 05:58:39;;;;;;;;;31.00;28.50;;;;;-145.45;100.00;57426.63;6215691;22;45352;-73
2023/05/02 06:01:05;;;;;;;;;31.25;25.00;;;;;-145.45;100.00;57426.63;6215055;22;45304;-73
2023/05/02 06:03:30;;;;;;;;;31.00;22.25;;;;;-145.45;100.00;57426.63;6213153;22;47010;-74
2023/05/02 06:05:56;;;;;;;;;32.00;25.25;;;;;-145.45;100.00;57426.63;6215281;22;45305;-75
2023/05/02 06:08:21;;;;;;;;;31.25;27.00;;;;;-145.45;100.00;57426.63;6215551;22;45221;-73
2023/05/02 06:10:46;;;;;;;;;33.25;30.50;;;;;-145.45;100.00;57426.63;6220433;22;53309;-74
2023/05/02 06:13:12;;;;;;;;;29.25;23.75;;;;;-145.45;100.00;57426.63;6245329;22;45225;-74
2023/05/02 06:15:37;;;;;;;;;30.75;26.50;;;;;-145.45;100.00;57426.63;6245441;22;45190;-74
2023/05/02 06:18:02;;;;;;;;;27.50;24.25;;;;;-145.45;100.00;57426.63;6246023;22;45483;-74
2023/05/02 06:20:28;;;;;;;;;31.00;27.25;;;;;-145.45;100.00;57426.63;6244639;22;45338;-71
2023/05/02 06:22:53;;;;;;;;;30.00;25.50;;;;;-145.45;100.00;57426.63;6245749;22;45098;-70
2023/05/02 06:25:18;;;;;;;;;34.25;24.50;;;;;-145.45;100.00;57426.63;6244730;22;50551;-73
2023/05/02 06:27:44;;;;;;;;;28.25;23.75;;;;;-145.45;100.00;57426.63;6245427;22;49593;-73
2023/05/02 06:30:09;;;;;;;;;27.50;25.75;;;;;-145.45;100.00;57426.63;6217785;22;49218;-73
2023/05/02 06:32:34;;;;;;;;;36.00;30.50;;;;;-145.45;100.00;57426.63;6246005;22;46285;-72
2023/05/02 06:35:00;;;;;;;;;34.00;26.50;;;;;-145.45;100.00;57426.63;6245647;22;49654;-73
2023/05/02 06:37:25;;;;;;;;;25.25;21.75;;;;;-145.45;100.00;57426.63;6246003;22;45243;-73
2023/05/02 06:39:50;;;;;;;;;28.75;25.75;;;;;-145.45;100.00;57426.63;6245452;22;45213;-73
2023/05/02 06:42:16;;;;;;;;;32.00;26.25;;;;;-145.45;100.00;57426.63;6245634;22;46088;-73
2023/05/02 06:44:41;;;;;;;;;27.00;24.00;;;;;-145.45;100.00;57426.63;6245848;22;45281;-73
2023/05/02 06:47:06;;;;;;;;;25.00;22.75;;;;;-145.45;100.00;57426.63;6245183;22;45639;-73
2023/05/02 06:49:32;;;;;;;;;27.50;24.50;;;;;-145.45;100.00;57426.63;6245864;22;45248;-72
2023/05/02 06:51:57;;;;;;;;;25.25;24.25;;;;;-145.45;100.00;57426.63;6219840;22;47080;-73
2023/05/02 06:54:23;;;;;;;;;32.25;27.75;;;;;-145.45;100.00;57426.63;6245083;22;45244;-73
2023/05/02 06:56:48;;;;;;;;;37.50;31.75;;;;;-145.45;100.00;57426.63;6247343;22;45384;-72
2023/05/02 06:59:15;;;;;;;;;31.00;24.00;;;;;-145.45;100.00;57426.63;6247430;22;45251;-73
2023/05/02 07:01:42;;;;;;;;;31.25;25.50;;;;;-145.45;100.00;57426.63;6246477;22;46027;-73
2023/05/02 07:04:07;;;;;;;;;28.00;24.50;;;;;-145.45;100.00;57426.63;6247268;22;45336;-72
2023/05/02 07:06:33;;;;;;;;;32.50;26.50;;;;;-145.45;100.00;57426.63;6247336;22;45250;-72
2023/05/02 07:08:58;;;;;;;;;33.00;26.50;;;;;-145.45;100.00;57426.63;6247399;22;45301;-73
2023/05/02 07:11:24;;;;;;;;;31.25;25.00;;;;;-145.45;100.00;57426.63;6246167;22;45260;-74
2023/05/02 07:13:49;;;;;;;;;31.00;27.75;;;;;-145.45;100.00;57426.63;6247514;22;45144;-73
2023/05/02 07:16:15;;;;;;;;;26.00;24.00;;;;;-145.45;100.00;57426.63;6247801;22;45270;-72
2023/05/02 07:18:41;;;;;;;;;33.00;27.50;;;;;-145.45;100.00;57426.63;6248351;22;45423;-72
2023/05/02 07:21:07;;;;;;;;;32.25;25.25;;;;;-145.45;100.00;57426.63;6246624;22;46196;-72
2023/05/02 07:23:32;;;;;;;;;34.75;28.75;;;;;-145.45;100.00;57426.63;6246403;22;45285;-72
2023/05/02 07:25:58;;;;;;;;;28.75;23.25;;;;;-145.45;100.00;57426.63;6246358;22;45386;-74
2023/05/02 07:28:23;;;;;;;;;30.50;27.25;;;;;-145.45;100.00;57426.63;6246836;22;45416;-74
2023/05/02 07:30:49;;;;;;;;;29.00;26.25;;;;;-145.45;100.00;57426.63;6246578;22;45402;-74
2023/05/02 07:33:14;;;;;;;;;29.75;26.75;;;;;-145.45;100.00;57426.63;6246767;22;45256;-74
2023/05/02 07:35:40;;;;;;;;;30.75;26.00;;;;;-145.45;100.00;57426.63;6246704;22;45290;-74
2023/05/02 07:38:05;;;;;;;;;25.75;25.50;;;;;-145.45;100.00;57426.63;6246713;22;45453;-72
2023/05/02 07:40:30;;;;;;;;;27.25;26.00;;;;;-145.45;100.00;57426.63;6245972;22;46144;-72
2023/05/02 07:42:57;;;;;;;;;30.25;28.50;;;;;-145.45;100.00;57426.63;6246836;22;45275;-72
2023/05/02 07:45:22;;;;;;;;;35.00;28.25;;;;;-145.45;100.00;57426.63;6246424;22;44678;-72
2023/05/02 07:47:47;;;;;;;;;39.50;33.00;;;;;-145.45;100.00;57426.63;6244158;22;45589;-73
2023/05/02 07:50:13;;;;;;;;;33.00;29.25;;;;;-145.45;100.00;57426.63;6246972;22;45272;-73
2023/05/02 07:52:38;;;;;;;;;25.50;24.00;;;;;-145.45;100.00;57426.63;6247178;22;45170;-72
2023/05/02 07:55:04;;;;;;;;;35.50;26.50;;;;;-145.45;100.00;57426.63;6247320;22;45212;-73
2023/05/02 07:57:29;;;;;;;;;33.50;30.25;;;;;-145.45;100.00;57426.63;6247641;22;45245;-72
2023/05/02 07:59:56;;;;;;;;;31.25;27.50;;;;;-145.45;100.00;57426.63;6220228;22;46104;-72
2023/05/02 08:02:22;;;;;;;;;31.50;27.75;;;;;-145.45;100.00;57426.63;6247848;22;45169;-72
2023/05/02 08:04:48;;;;;;;;;41.50;35.25;;;;;-145.45;100.00;57426.63;6246996;22;45238;-73
2023/05/02 08:07:14;;;;;;;;;35.00;33.25;;;;;-145.45;100.00;57426.63;6246688;22;45351;-73
2023/05/02 08:09:39;;;;;;;;;31.00;31.00;;;;;-145.45;100.00;57426.63;6246114;22;45270;-73
2023/05/02 08:12:05;;;;;;;;;32.00;30.00;;;;;-145.45;100.00;57426.63;6245137;22;52820;-73
2023/05/02 08:14:30;;;;;;;;;32.75;30.25;;;;;-145.45;100.00;57426.63;6246850;22;45265;-73
2023/05/02 08:16:56;;;;;;;;;35.25;32.25;;;;;-145.45;100.00;57426.63;6246348;22;45376;-74
2023/05/02 08:19:21;;;;;;;;;39.25;33.25;;;;;-145.45;100.00;57426.63;6246708;22;46253;-74
2023/05/02 08:21:47;;;;;;;;;37.75;31.25;;;;;-145.45;100.00;57426.63;6246669;22;45160;-74
2023/05/02 08:24:12;;;;;;;;;36.25;30.50;;;;;-145.45;100.00;57426.63;6247295;22;45150;-74
2023/05/02 08:26:37;;;;;;;;;39.67;32.33;;;;;-145.45;100.00;57426.63;6245664;22;45193;-74
2023/05/02 08:29:03;;;;;;;;;18.67;15.00;;;;;-145.45;100.00;57426.63;6246163;22;46335;-73
2023/05/02 08:31:29;;;;;;;;;11.00;10.00;;;;;-145.45;100.00;57426.63;6246515;22;44571;-73
2023/05/02 08:33:55;;;;;;;;;34.00;30.67;;;;;-145.45;100.00;57426.63;6246647;22;45223;-73
2023/05/02 08:36:20;;;;;;;;;28.00;26.33;;;;;-145.45;100.00;57426.63;6245135;22;45563;-74
2023/05/02 08:38:46;;;;;;;;;39.67;30.33;;;;;-145.45;100.00;57426.63;6247111;22;46013;-75
2023/05/02 08:41:16;;;;;;;;;36.33;30.33;;;;;-145.45;100.00;57426.63;6245733;22;45312;-71
2023/05/02 08:43:43;;;;;;;;;26.67;26.67;;;;;-145.45;100.00;57426.63;6246475;22;45165;-72
2023/05/02 08:46:10;;;;;;;;;31.67;29.00;;;;;-145.45;100.00;57426.63;6245974;22;45090;-72
2023/05/02 08:48:37;;;;;;;;;30.33;28.33;;;;;-145.45;100.00;57426.63;6246313;22;45317;-73
2023/05/02 08:51:03;;;;;;;;;24.67;19.67;;;;;-145.45;100.00;57426.63;6246042;22;45271;-72
2023/05/02 08:53:34;;;;;;;;;18.33;16.00;;;;;-145.45;100.00;57426.63;6246035;22;45205;-72
2023/05/02 08:56:00;;;;;;;;;19.33;18.33;;;;;-145.45;100.00;57426.63;6245717;22;45216;-73
2023/05/02 08:58:25;;;;;;;;;17.00;17.00;;;;;-145.45;100.00;57426.63;6246082;22;45944;-72
2023/05/02 09:00:51;;;;;;;;;17.67;16.00;;;;;-145.45;100.00;57426.63;6245684;22;45308;-73
2023/05/02 09:03:36;;;;;;;;;22.67;21.67;;;;;-145.45;100.00;57426.63;6247050;22;45261;-72
2023/05/02 09:06:09;;;;;;;;;22.67;22.00;;;;;-145.45;100.00;57426.63;6218719;22;45438;-73
2023/05/02 09:08:35;;;;;;;;;20.00;20.00;;;;;-145.45;100.00;57426.63;6246018;22;45301;-72
2023/05/02 09:11:05;;;;;;;;;4.67;3.00;;;;;-145.45;100.00;57426.63;6245616;22;45345;-72
2023/05/02 09:13:36;;;;;;;;;18.33;17.33;;;;;-145.45;100.00;57426.63;6245704;22;45358;-73
2023/05/02 09:16:07;;;;;;;;;23.33;19.33;;;;;-145.45;100.00;57426.63;6244986;22;45316;-72
2023/05/02 09:18:32;;;;;;;;;21.33;19.33;;;;;-145.45;100.00;57426.63;6246375;22;45209;-72
2023/05/02 09:20:59;;;;;;;;;16.00;15.00;;;;;-145.45;100.00;57426.63;6246144;22;45155;-73
2023/05/02 09:23:44;;;;;;;;;18.67;15.00;;;;;-145.45;100.00;57426.63;6246839;22;45169;-73
2023/05/02 09:26:11;;;;;;;;;14.33;11.67;;;;;-145.45;100.00;57426.63;6218428;22;45909;-73
2023/05/02 09:28:42;;;;;;;;;19.00;16.33;;;;;-145.45;100.00;57426.63;6245266;22;45371;-73
2023/05/02 09:31:10;;;;;;;;;23.67;17.33;;;;;-145.45;100.00;57426.63;6245922;22;45236;-72
2023/05/02 09:33:38;;;;;;;;;20.33;18.33;;;;;-145.45;100.00;57426.63;6246306;22;45223;-73
2023/05/02 09:36:06;;;;;;;;;15.00;14.00;;;;;-145.45;100.00;57426.63;6245783;22;45162;-73
2023/05/02 09:38:31;;;;;;;;;17.67;16.00;;;;;-145.45;100.00;57426.63;6245662;22;46566;-73
2023/05/02 09:40:57;;;;;;;;;19.00;17.67;;;;;-145.45;100.00;57426.63;6245606;22;45193;-73
2023/05/02 09:43:22;;;;;;;;;19.67;17.00;;;;;-145.45;100.00;57426.63;6219468;22;45209;-73
2023/05/02 09:45:59;;;;;;;;;19.33;18.00;;;;;-145.45;100.00;57426.63;6245004;22;45201;-73
2023/05/02 09:48:26;;;;;;;;;23.33;22.33;;;;;-145.45;100.00;57426.63;6245829;22;45173;-72
2023/05/02 09:50:51;;;;;;;;;21.00;20.00;;;;;-145.45;100.00;57426.63;6245538;22;45241;-73
2023/05/02 09:53:17;;;;;;;;;20.00;18.67;;;;;-145.45;100.00;57426.63;6246420;22;45379;-72
2023/05/02 09:55:42;;;;;;;;;18.67;15.33;;;;;-145.45;100.00;57426.63;6245757;22;45287;-72
2023/05/02 09:58:20;;;;;;;;;18.33;18.00;;;;;-145.45;100.00;57426.63;6246642;22;45244;-71
2023/05/02 10:00:46;;;;;;;;;23.00;22.33;;;;;-145.45;100.00;57426.63;6245973;22;45236;-72
2023/05/02 10:03:16;;;;;;;;;23.00;22.00;;;;;-145.45;100.00;57426.63;6246614;22;45292;-72
2023/05/02 10:05:43;;;;;;;;;19.67;19.33;;;;;-145.45;100.00;57426.63;6245937;22;45244;-72
2023/05/02 10:08:09;;;;;;;;;23.33;21.67;;;;;-145.45;100.00;57426.63;6246485;22;45354;-72
2023/05/02 10:10:49;;;;;;;;;21.67;19.67;;;;;-145.45;100.00;57426.63;6245029;22;45540;-71
2023/05/02 10:13:18;;;;;;;;;22.33;20.67;;;;;-145.45;100.00;57426.63;6246416;22;45120;-72
2023/05/02 10:15:45;;;;;;;;;20.33;20.00;;;;;-145.45;100.00;57426.63;6245108;22;45343;-72
2023/05/02 10:18:47;;;;;;;;;18.00;17.00;;;;;-145.45;100.00;57426.63;6217707;22;48068;-72
2023/05/02 10:21:16;;;;;;;;;17.00;16.67;;;;;-145.45;100.00;57426.63;6245568;22;45288;-73
2023/05/02 10:23:45;;;;;;;;;21.67;18.67;;;;;-145.45;100.00;57426.63;6217800;22;45185;-73
2023/05/02 10:26:16;;;;;;;;;20.00;18.67;;;;;-145.45;100.00;57426.63;6245977;22;45179;-72
2023/05/02 10:28:42;;;;;;;;;19.33;16.67;;;;;-145.45;100.00;57426.63;6245649;22;45414;-72
2023/05/02 10:31:12;;;;;;;;;20.00;19.33;;;;;-145.45;100.00;57426.63;6247282;22;45250;-73
2023/05/02 10:33:38;;;;;;;;;17.00;16.67;;;;;-145.45;100.00;57426.63;6219749;22;45286;-73
2023/05/02 10:36:06;;;;;;;;;26.00;23.00;;;;;-145.45;100.00;57426.63;6246694;22;45406;-72
2023/05/02 10:38:32;;;;;;;;;21.67;18.67;;;;;-145.45;100.00;57426.63;6247221;22;45356;-73
2023/05/02 10:41:06;;;;;;;;;20.33;20.33;;;;;-145.45;100.00;57426.63;6246835;22;45150;-73
2023/05/02 10:43:34;;;;;;;;;22.67;19.00;;;;;-145.45;100.00;57426.63;6247781;22;45288;-72
2023/05/02 10:46:02;;;;;;;;;24.00;23.00;;;;;-145.45;100.00;57426.63;6246553;22;45174;-73
2023/05/02 10:48:28;;;;;;;;;20.33;19.67;;;;;-145.45;100.00;57426.63;6246084;22;45351;-73
2023/05/02 10:50:56;;;;;;;;;24.67;21.00;;;;;-145.45;100.00;57426.63;6247333;22;45281;-73
2023/05/02 10:53:43;;;;;;;;;26.00;26.00;;;;;-145.45;100.00;57426.63;6247520;22;45190;-72
2023/05/02 10:56:20;;;;;;;;;23.67;23.00;;;;;-145.45;100.00;57426.63;6245764;22;45221;-74
2023/05/02 10:58:50;;;;;;;;;22.67;21.33;;;;;-145.45;100.00;57426.63;6247866;22;45213;-74
2023/05/02 11:01:27;;;;;;;;;31.00;26.67;;;;;-145.45;100.00;57426.63;6245994;22;45233;-74
2023/05/02 11:03:56;;;;;;;;;26.33;25.33;;;;;-145.45;100.00;57426.63;6219906;22;45249;-72
2023/05/02 11:06:26;;;;;;;;;29.33;25.00;;;;;-145.45;100.00;57426.63;6247036;22;45414;-73
2023/05/02 11:08:52;;;;;;;;;27.67;25.33;;;;;-145.45;100.00;57426.63;6219953;22;46193;-73
2023/05/02 11:11:38;;;;;;;;;27.67;24.67;;;;;-145.45;100.00;57426.63;6246190;22;45119;-72
2023/05/02 11:14:03;;;;;;;;;20.00;20.00;;;;;-145.45;100.00;57426.63;6246081;22;45193;-73
2023/05/02 11:17:00;;;;;;;;;18.00;16.33;;;;;-145.45;100.00;57426.63;6247224;22;45229;-72
2023/05/02 11:19:30;;;;;;;;;22.67;18.33;;;;;-145.45;100.00;57426.63;6247284;22;45243;-73
2023/05/02 11:22:22;;;;;;;;;17.33;14.33;;;;;-145.45;100.00;57426.63;6247377;22;45304;-73
2023/05/02 11:24:48;;;;;;;;;40.67;32.33;;;;;-145.45;100.00;57426.63;6246783;22;45289;-72
2023/05/02 11:27:32;;;;;;;;;19.67;18.33;;;;;-145.45;100.00;57426.63;6247462;22;45371;-74
2023/05/02 11:30:08;;;;;;;;;21.67;20.00;;;;;-145.45;100.00;57426.63;6246924;22;45288;-73
2023/05/02 11:32:42;;;;;;;;;16.67;16.67;;;;;-145.45;100.00;57426.63;6246571;22;45280;-73
2023/05/02 11:35:33;;;;;;;;;16.00;14.00;;;;;-145.45;100.00;57426.63;6247015;22;45245;-73
2023/05/02 11:38:04;;;;;;;;;16.33;16.33;;;;;-145.45;100.00;57426.63;6246355;22;45220;-74
2023/05/02 11:40:30;;;;;;;;;16.67;15.00;;;;;-145.45;100.00;57426.63;6246471;22;45221;-72
2023/05/02 11:42:57;;;;;;;;;17.67;16.33;;;;;-145.45;100.00;57426.63;6247408;22;44654;-72
2023/05/02 11:45:36;;;;;;;;;19.00;16.33;;;;;-145.45;100.00;57426.63;6220237;22;45293;-73
2023/05/02 11:48:06;;;;;;;;;19.00;18.00;;;;;-145.45;100.00;57426.63;6247507;22;45200;-72
2023/05/02 11:50:32;;;;;;;;;19.67;18.33;;;;;-145.45;100.00;57426.63;6246766;22;45356;-73
2023/05/02 11:52:58;;;;;;;;;19.00;17.33;;;;;-145.45;100.00;57426.63;6247293;22;45152;-73
2023/05/02 11:55:24;;;;;;;;;17.67;14.67;;;;;-145.45;100.00;57426.63;6247279;22;45441;-73
2023/05/02 11:57:50;;;;;;;;;21.33;20.00;;;;;-145.45;100.00;57426.63;6247004;22;45307;-72
2023/05/02 12:00:16;;;;;;;;;16.33;16.33;;;;;-145.45;100.00;57426.63;6247398;22;45884;-73
2023/05/02 12:02:43;;;;;;;;;20.33;15.33;;;;;-145.45;100.00;57426.63;6247303;22;45233;-73
2023/05/02 12:05:13;;;;;;;;;16.33;15.00;;;;;-145.45;100.00;57426.63;6219456;22;45204;-72
2023/05/02 12:07:41;;;;;;;;;17.67;17.00;;;;;-145.45;100.00;57426.63;6219218;22;46725;-72
2023/05/02 12:10:08;;;;;;;;;20.00;18.00;;;;;-145.45;100.00;57426.63;6246319;22;45190;-73
2023/05/02 12:12:33;;;;;;;;;18.33;16.00;;;;;-145.45;100.00;57426.63;6246265;22;45379;-73
2023/05/02 12:15:06;;;;;;;;;16.00;16.00;;;;;-145.45;100.00;57426.63;6247301;22;45253;-72
2023/05/02 12:17:33;;;;;;;;;15.25;13.50;;;;;-145.45;100.00;57426.63;6247375;22;45107;-72
2023/05/02 12:19:59;;;;;;;;;16.00;14.50;;;;;-145.45;100.00;57426.63;6246847;22;45304;-73
2023/05/02 12:22:25;;;;;;;;;20.75;15.00;;;;;-145.45;100.00;57426.63;6219692;22;45261;-72
2023/05/02 12:24:52;;;;;;;;;15.50;14.00;;;;;-145.45;100.00;57426.63;6247039;22;45176;-73
2023/05/02 12:27:17;;;;;;;;;11.75;11.75;;;;;-145.45;100.00;57426.63;6247160;22;45197;-72
2023/05/02 12:29:45;;;;;;;;;14.50;13.00;;;;;-145.45;100.00;57426.63;6218948;22;47630;-72
2023/05/02 12:32:12;;;;;;;;;16.50;15.50;;;;;-145.45;100.00;57426.63;6247184;22;45185;-73
2023/05/02 12:34:39;;;;;;;;;13.75;13.75;;;;;-145.45;100.00;57426.63;6246952;22;45302;-72
2023/05/02 12:37:05;;;;;;;;;16.25;13.25;;;;;-145.45;100.00;57426.63;6247060;22;45468;-73
2023/05/02 12:39:37;;;;;;;;;10.75;8.75;;;;;-145.45;100.00;57426.63;6246298;22;46144;-72
2023/05/02 12:42:10;;;;;;;;;16.25;12.25;;;;;-145.45;100.00;57426.63;6246929;22;45280;-73
2023/05/02 12:44:37;;;;;;;;;10.50;10.50;;;;;-145.45;100.00;57426.63;6246957;22;45206;-72
2023/05/02 12:47:03;;;;;;;;;12.00;10.75;;;;;-145.45;100.00;57426.63;6246467;22;45231;-72
2023/05/02 12:49:28;;;;;;;;;11.00;11.00;;;;;-145.45;100.00;57426.63;6246954;22;45883;-72
2023/05/02 12:51:57;;;;;;;;;16.75;14.75;;;;;-145.45;100.00;57426.63;6247055;22;45231;-73
2023/05/02 12:54:23;;;;;;;;;14.00;14.00;;;;;-145.45;100.00;57426.63;6247610;22;45310;-73
2023/05/02 12:56:50;;;;;;;;;14.75;12.00;;;;;-145.45;100.00;57426.63;6246307;22;45182;-73
2023/05/02 12:59:30;;;;;;;;;10.50;9.75;;;;;-145.45;100.00;57426.63;6246902;22;45332;-73
2023/05/02 13:01:56;;;;;;;;;8.50;8.50;;;;;-145.45;100.00;57426.63;6246738;22;45299;-74
2023/05/02 13:04:35;;;;;;;;;9.25;8.25;;;;;-145.45;100.00;57426.63;6247520;22;45257;-73
2023/05/02 13:07:00;;;;;;;;;9.25;8.75;;;;;-145.45;100.00;57426.63;6246951;22;45092;-72
2023/05/02 13:09:26;;;;;;;;;8.75;8.75;;;;;-145.45;100.00;57426.63;6219372;22;46905;-73
2023/05/02 13:11:52;;;;;;;;;10.00;8.00;;;;;-145.45;100.00;57426.63;6218728;22;45876;-72
2023/05/02 13:14:18;;;;;;;;;12.00;11.25;;;;;-145.45;100.00;57426.63;6247014;22;45300;-73
2023/05/02 13:16:43;;;;;;;;;10.00;8.25;;;;;-145.45;100.00;57426.63;6246166;22;45383;-73
2023/05/02 13:19:09;;;;;;;;;9.00;8.25;;;;;-145.45;100.00;57426.63;6246663;22;47773;-73
2023/05/02 13:21:34;;;;;;;;;13.75;10.75;;;;;-145.45;100.00;57426.63;6246555;22;45321;-74
2023/05/02 13:24:00;;;;;;;;;6.00;6.00;;;;;-145.45;100.00;57426.63;6219256;22;45745;-74
2023/05/02 13:26:25;;;;;;;;;8.75;8.75;;;;;-145.45;100.00;57426.63;6245117;22;45475;-73
2023/05/02 13:28:50;;;;;;;;;9.25;8.50;;;;;-145.45;100.00;57426.63;6246917;22;46119;-73
2023/05/02 13:31:16;;;;;;;;;9.50;9.00;;;;;-145.45;100.00;57426.63;6246312;22;45236;-71
2023/05/02 13:33:41;;;;;;;;;9.50;8.50;;;;;-145.45;100.00;57426.63;6246845;22;45232;-73
2023/05/02 13:36:07;;;;;;;;;6.75;5.50;;;;;-145.45;100.00;57426.63;6246362;22;46666;-72
2023/05/02 13:38:33;;;;;;;;;9.50;8.00;;;;;-145.45;100.00;57426.63;6246447;22;45241;-73
2023/05/02 13:40:59;;;;;;;;;9.00;7.25;;;;;-145.45;100.00;57426.63;6245297;22;45161;-72
2023/05/02 13:43:24;;;;;;;;;15.50;10.25;;;;;-145.45;100.00;57426.63;6219365;22;45259;-72
2023/05/02 13:45:51;;;;;;;;;9.50;9.25;;;;;-145.45;100.00;57426.63;6247153;22;45150;-72
2023/05/02 13:48:16;;;;;;;;;8.75;8.75;;;;;-145.45;100.00;57426.63;6247852;22;45222;-73
2023/05/02 13:50:41;;;;;;;;;5.00;4.00;;;;;-145.45;100.00;57426.63;6246801;22;45217;-72
2023/05/02 13:53:07;;;;;;;;;7.75;7.50;;;;;-145.45;100.00;57426.63;6219466;22;45595;-72
2023/05/02 13:55:32;;;;;;;;;7.75;7.75;;;;;-145.45;100.00;57426.63;6245979;22;46768;-73
2023/05/02 13:57:57;;;;;;;;;12.00;10.25;;;;;-145.45;100.00;57426.63;6245898;22;45675;-73
2023/05/02 14:00:23;;;;;;;;;9.25;7.50;;;;;-145.45;100.00;57426.63;6246139;22;45233;-73
2023/05/02 14:02:48;;;;;;;;;11.50;10.00;;;;;-145.45;100.00;57426.63;6246719;22;45189;-72
2023/05/02 14:05:14;;;;;;;;;8.50;8.25;;;;;-145.45;100.00;57426.63;6218489;22;47101;-72
2023/05/02 14:07:39;;;;;;;;;12.75;10.75;;;;;-145.45;100.00;57426.63;6246323;22;45407;-72
2023/05/02 14:10:05;;;;;;;;;10.00;9.00;;;;;-145.45;100.00;57426.63;6245696;22;45224;-72
2023/05/02 14:12:31;;;;;;;;;9.00;8.75;;;;;-145.45;100.00;57426.63;6245817;22;45278;-71
2023/05/02 14:14:56;;;;;;;;;7.50;7.50;;;;;-145.45;100.00;57426.63;6245729;22;45341;-72
2023/05/02 14:17:24;;;;;;;;;8.75;7.75;;;;;-145.45;100.00;57426.63;6246429;22;45284;-72
2023/05/02 14:19:50;;;;;;;;;11.50;8.75;;;;;-145.45;100.00;57426.63;6245195;22;45229;-72
2023/05/02 14:22:15;;;;;;;;;8.75;7.25;;;;;-145.45;100.00;57426.63;6219080;22;45443;-72
2023/05/02 14:24:41;;;;;;;;;10.25;8.75;;;;;-145.45;100.00;57426.63;6245071;22;45387;-72
2023/05/02 14:27:11;;;;;;;;;7.50;7.50;;;;;-145.45;100.00;57426.63;6246095;22;46036;-72
2023/05/02 14:29:37;;;;;;;;;13.00;10.00;;;;;-145.45;100.00;57426.63;6245272;22;45326;-72
2023/05/02 14:32:02;;;;;;;;;9.75;9.75;;;;;-145.45;100.00;57426.63;6246610;22;45341;-72
2023/05/02 14:34:27;;;;;;;;;9.00;6.75;;;;;-145.45;100.00;57426.63;6246623;22;45300;-72
2023/05/02 14:36:53;;;;;;;;;10.75;9.50;;;;;-145.45;100.00;57426.63;6246076;22;46276;-72
2023/05/02 14:39:18;;;;;;;;;8.25;8.25;;;;;-145.45;100.00;57426.63;6246548;22;45250;-72
2023/05/02 14:41:43;;;;;;;;;7.25;6.75;;;;;-145.45;100.00;57426.63;6245731;22;45252;-72
2023/05/02 14:44:09;;;;;;;;;7.25;7.25;;;;;-145.45;100.00;57426.63;6246688;22;45229;-72
2023/05/02 14:46:34;;;;;;;;;10.75;9.75;;;;;-145.45;100.00;57426.63;6218547;22;47361;-71
2023/05/02 14:48:59;;;;;;;;;7.00;6.00;;;;;-145.45;100.00;57426.63;6246496;22;45103;-72
2023/05/02 14:51:25;;;;;;;;;5.50;5.50;;;;;-145.45;100.00;57426.63;6218910;22;45140;-71
2023/05/02 14:53:50;;;;;;;;;5.50;5.50;;;;;-145.45;100.00;57426.63;6245692;22;45162;-70
2023/05/02 14:56:17;;;;;;;;;8.75;8.00;;;;;-145.45;100.00;57426.63;6243136;22;46723;-71
2023/05/02 14:58:43;;;;;;;;;10.75;7.50;;;;;-145.45;100.00;57426.63;6243786;22;45488;-70
2023/05/02 15:01:16;;;;;;;;;9.25;7.50;;;;;-145.45;100.00;57426.63;6246027;22;45274;-70
2023/05/02 15:03:41;;;;;;;;;9.75;8.00;;;;;-145.45;100.00;57426.63;6243980;22;45249;-71
2023/05/02 15:06:07;;;;;;;;;6.25;6.00;;;;;-145.45;100.00;57426.63;6244349;22;46438;-71
2023/05/02 15:08:33;;;;;;;;;8.25;6.00;;;;;-145.45;100.00;57426.63;6245763;22;45370;-70
2023/05/02 15:10:58;;;;;;;;;9.50;9.00;;;;;-145.45;100.00;57426.63;6245270;22;45149;-71
2023/05/02 15:13:23;;;;;;;;;11.75;9.00;;;;;-145.45;100.00;57426.63;6247296;22;45268;-71
2023/05/02 15:15:48;;;;;;;;;7.00;7.00;;;;;-145.45;100.00;57426.63;6247562;22;46274;-71
2023/05/02 15:18:14;;;;;;;;;8.75;7.75;;;;;-145.45;100.00;57426.63;6220205;22;45210;-72
2023/05/02 15:20:39;;;;;;;;;6.00;6.00;;;;;-145.45;100.00;57426.63;6247459;22;45253;-73
2023/05/02 15:23:05;;;;;;;;;7.50;7.50;;;;;-145.45;100.00;57426.63;6247492;22;45193;-72
2023/05/02 15:25:30;;;;;;;;;7.00;6.50;;;;;-145.45;100.00;57426.63;6247040;22;45223;-72
2023/05/02 15:27:55;;;;;;;;;8.25;8.25;;;;;-145.45;100.00;57426.63;6247683;22;45245;-71
2023/05/02 15:30:21;;;;;;;;;8.00;7.50;;;;;-145.45;100.00;57426.63;6246807;22;45440;-72
2023/05/02 15:32:46;;;;;;;;;6.50;6.00;;;;;-145.45;100.00;57426.63;6243098;22;57659;-72
2023/05/02 15:35:11;;;;;;;;;6.00;6.00;;;;;-145.45;100.00;57426.63;6219413;22;47047;-73
2023/05/02 15:37:37;;;;;;;;;7.50;5.25;;;;;-145.45;100.00;57426.63;6219536;22;52952;-72
2023/05/02 15:40:03;;;;;;;;;7.50;6.50;;;;;-145.45;100.00;57426.63;6246820;22;45794;-72
2023/05/02 15:42:28;;;;;;;;;9.00;7.25;;;;;-145.45;100.00;57426.63;6246812;22;45214;-72
2023/05/02 15:44:53;;;;;;;;;7.75;7.00;;;;;-145.45;100.00;57426.63;6246250;22;45225;-73
2023/05/02 15:47:21;;;;;;;;;5.75;5.75;;;;;-145.45;100.00;57426.63;6219197;22;45242;-72
2023/05/02 15:49:46;;;;;;;;;7.25;7.25;;;;;-145.45;100.00;57426.63;6247035;22;45157;-72
2023/05/02 15:52:11;;;;;;;;;6.00;6.00;;;;;-145.45;100.00;57426.63;6247236;22;45095;-73
2023/05/02 15:54:38;;;;;;;;;8.75;7.00;;;;;-145.45;100.00;57426.63;6246512;22;45279;-73
2023/05/02 15:57:03;;;;;;;;;6.50;6.25;;;;;-145.45;100.00;57426.63;6246783;22;45380;-73
2023/05/02 15:59:29;;;;;;;;;7.50;6.50;;;;;-145.45;100.00;57426.63;6247522;22;45270;-72
2023/05/02 16:01:54;;;;;;;;;6.50;4.00;;;;;-145.45;100.00;57426.63;6246724;22;45192;-72
2023/05/02 16:04:20;;;;;;;;;7.25;7.25;;;;;-145.45;100.00;57426.63;6245797;22;46170;-72
2023/05/02 16:06:45;;;;;;;;;7.00;5.50;;;;;-145.45;100.00;57426.63;6246386;22;45475;-73